Terminal Aerodrome Forecast
Issued by NWS

Home | Current Version | Previous Version | Text Only | Print | Product List | Glossary On
Versions: 1 2 3 4 5 6 7 8 9 10 11 12 13 14 15 16 17 18
284
FTUS46 KMFR 101749
TAFRBG
TAF
KRBG 101749Z 1018/1118 VRB03KT P6SM VCSH FEW015 SCT035 OVC050
     FM102200 21007KT P6SM -SHRA BKN025 OVC040
     FM110600 17003KT P6SM -SHRA FEW007 BKN015 OVC025
     FM110900 VRB02KT 4SM -RA BR SCT004 OVC008=

USA.gov is the U.S. government's official web portal to all federal, state and local government web resources and services.